createdAt,value
2022-12-01T00:03:05.369Z,1.84
2022-12-01T00:08:08.532Z,1.83
2022-12-01T00:13:11.326Z,1.83
2022-12-01T00:18:14.040Z,1.81
2022-12-01T00:23:16.783Z,1.80
2022-12-01T00:28:19.895Z,1.81
2022-12-01T00:33:22.710Z,1.82
2022-12-01T00:38:25.804Z,1.83
2022-12-01T00:43:28.604Z,1.84
2022-12-01T00:48:31.509Z,1.84
2022-12-01T00:53:34.412Z,1.82
2022-12-01T00:58:37.157Z,1.80
2022-12-01T01:03:40.026Z,1.80
2022-12-01T01:08:42.957Z,1.78
2022-12-01T01:13:45.683Z,1.75
2022-12-01T01:18:48.814Z,1.74
2022-12-01T01:23:53.888Z,1.71
2022-12-01T01:28:59.270Z,1.70
2022-12-01T01:34:03.529Z,1.71
2022-12-01T01:39:06.394Z,1.70
2022-12-01T01:44:46.928Z,1.67
2022-12-01T01:49:50.105Z,1.65
2022-12-01T01:54:55.787Z,1.62
2022-12-01T02:00:07.505Z,1.62
2022-12-01T02:05:16.797Z,1.65
2022-12-01T02:10:23.924Z,1.68
2022-12-01T02:15:39.327Z,1.70
2022-12-01T02:21:19.448Z,1.71
2022-12-01T02:26:52.637Z,1.70
2022-12-01T02:32:23.654Z,1.69
2022-12-01T02:37:47.669Z,1.71
2022-12-01T02:43:28.367Z,1.75
2022-12-01T02:48:36.797Z,1.79
2022-12-01T02:53:39.699Z,1.81
2022-12-01T02:58:44.130Z,1.79
2022-12-01T03:04:18.372Z,1.78
2022-12-01T03:09:47.277Z,1.81
2022-12-01T03:15:11.284Z,1.87
2022-12-01T03:20:28.020Z,1.91
2022-12-01T03:25:32.470Z,1.91
2022-12-01T03:30:37.922Z,1.86
2022-12-01T03:35:54.446Z,1.84
2022-12-01T03:41:02.094Z,1.86
2022-12-01T03:46:15.967Z,1.87
2022-12-01T03:51:33.368Z,1.86
2022-12-01T03:56:44.748Z,1.83
2022-12-01T04:01:48.406Z,1.78
2022-12-01T04:06:51.438Z,1.75
2022-12-01T04:12:12.867Z,1.75
2022-12-01T04:17:15.604Z,1.74
2022-12-01T04:22:19.258Z,1.69
2022-12-01T04:27:22.263Z,1.66
2022-12-01T04:32:25.068Z,1.67
2022-12-01T04:37:27.770Z,1.70
2022-12-01T04:42:30.515Z,1.69
2022-12-01T04:47:33.371Z,1.63
2022-12-01T04:52:37.733Z,1.59
2022-12-01T04:57:41.652Z,1.57
2022-12-01T05:02:44.440Z,1.54
2022-12-01T05:07:47.297Z,1.53
2022-12-01T05:12:50.244Z,1.54
2022-12-01T05:17:52.990Z,1.57
2022-12-01T05:23:06.793Z,1.56
2022-12-01T05:28:10.426Z,1.54
2022-12-01T05:33:13.358Z,1.53
2022-12-01T05:38:16.548Z,1.55
2022-12-01T05:43:26.922Z,1.55
2022-12-01T05:48:32.029Z,1.57
2022-12-01T05:53:34.819Z,1.56
2022-12-01T05:58:38.091Z,1.55
2022-12-01T06:03:40.849Z,1.57
2022-12-01T06:08:43.705Z,1.62
2022-12-01T06:13:46.474Z,1.69
2022-12-01T06:18:49.317Z,1.73
2022-12-01T06:23:52.121Z,1.73
2022-12-01T06:28:56.563Z,1.70
2022-12-01T06:33:59.442Z,1.68
2022-12-01T06:39:06.057Z,1.68
2022-12-01T06:44:08.940Z,1.72
2022-12-01T06:49:12.680Z,1.79
2022-12-01T06:54:17.920Z,1.85
2022-12-01T06:59:20.674Z,1.91
2022-12-01T07:04:23.606Z,1.95
2022-12-01T07:09:26.429Z,1.97
2022-12-01T07:14:31.072Z,1.96
2022-12-01T07:19:34.591Z,1.96
2022-12-01T07:24:37.494Z,2.02
2022-12-01T07:29:40.397Z,2.11
2022-12-01T07:34:43.168Z,2.14
2022-12-01T07:39:45.923Z,2.12
2022-12-01T07:44:48.702Z,2.10
2022-12-01T07:49:51.661Z,2.11
2022-12-01T07:54:54.718Z,2.12
2022-12-01T07:59:57.927Z,2.17
2022-12-01T08:05:00.730Z,2.22
2022-12-01T08:10:04.047Z,2.27
2022-12-01T08:15:07.783Z,2.29
2022-12-01T08:20:11.680Z,2.33
2022-12-01T08:25:15.104Z,2.40
2022-12-01T08:30:18.013Z,2.47
2022-12-01T08:35:20.952Z,2.58
2022-12-01T08:40:23.760Z,2.69
2022-12-01T08:45:27.043Z,2.78
2022-12-01T08:50:29.946Z,2.84
2022-12-01T08:55:32.841Z,2.87
2022-12-01T09:00:35.621Z,2.88
2022-12-01T09:05:38.359Z,2.84
2022-12-01T09:10:42.413Z,2.82
2022-12-01T09:15:55.453Z,2.86
2022-12-01T09:20:59.034Z,2.92
2022-12-01T09:26:01.819Z,2.99
2022-12-01T09:31:10.144Z,3.10
2022-12-01T09:36:13.389Z,3.22
2022-12-01T09:41:21.658Z,3.36
2022-12-01T09:46:30.746Z,3.48
2022-12-01T09:51:36.403Z,3.54
2022-12-01T09:56:47.023Z,3.63
2022-12-01T10:01:56.138Z,3.73
2022-12-01T10:07:02.634Z,3.77
2022-12-01T10:12:17.883Z,3.84
2022-12-01T10:17:32.731Z,3.90
2022-12-01T10:22:41.531Z,3.89
2022-12-01T10:28:04.247Z,3.88
2022-12-01T10:33:23.515Z,3.81
2022-12-01T10:38:31.022Z,3.78
2022-12-01T10:43:47.974Z,3.83
2022-12-01T10:49:07.519Z,3.87
2022-12-01T10:54:11.859Z,3.93
2022-12-01T10:59:36.014Z,3.96
2022-12-01T11:04:52.436Z,4.01
2022-12-01T11:10:00.451Z,4.08
2022-12-01T11:15:06.125Z,4.10
2022-12-01T11:20:48.637Z,4.08
2022-12-01T11:26:05.495Z,4.01
2022-12-01T11:31:10.544Z,3.99
2022-12-01T11:36:26.470Z,4.01
2022-12-01T11:41:40.928Z,3.99
2022-12-01T11:46:50.306Z,3.92
2022-12-01T11:52:16.872Z,3.88
2022-12-01T11:57:33.746Z,3.85
2022-12-01T12:03:03.195Z,3.80
2022-12-01T12:08:15.129Z,3.79
2022-12-01T12:13:36.559Z,3.81
2022-12-01T12:18:42.252Z,3.82
2022-12-01T12:23:44.999Z,3.79
2022-12-01T12:29:13.833Z,3.75
2022-12-01T12:34:46.282Z,3.67
2022-12-01T12:40:07.279Z,3.61
2022-12-01T12:45:40.586Z,3.60
2022-12-01T12:51:10.905Z,3.60
2022-12-01T12:56:17.884Z,3.56
2022-12-01T13:01:34.430Z,3.49
2022-12-01T13:06:43.729Z,3.41
2022-12-01T13:11:48.969Z,3.38
2022-12-01T13:16:57.149Z,3.38
2022-12-01T13:22:01.842Z,3.36
2022-12-01T13:27:10.793Z,3.31
2022-12-01T13:32:32.395Z,3.25
2022-12-01T13:37:37.901Z,3.22
2022-12-01T13:42:41.075Z,3.23
2022-12-01T13:47:47.187Z,3.23
2022-12-01T13:52:50.647Z,3.23
2022-12-01T13:57:59.187Z,3.20
2022-12-01T14:03:20.222Z,3.14
2022-12-01T14:08:27.768Z,3.11
2022-12-01T14:13:32.836Z,3.11
2022-12-01T14:19:02.130Z,3.13
2022-12-01T14:24:07.223Z,3.12
2022-12-01T14:29:23.675Z,3.07
2022-12-01T14:34:34.424Z,3.01
2022-12-01T14:39:40.844Z,2.96
2022-12-01T14:44:55.282Z,2.94
2022-12-01T14:50:13.170Z,2.93
2022-12-01T14:55:26.496Z,2.91
2022-12-01T15:00:30.506Z,2.88
2022-12-01T15:05:40.195Z,2.83
2022-12-01T15:10:59.783Z,2.78
2022-12-01T15:16:05.922Z,2.79
2022-12-01T15:21:29.347Z,2.74
2022-12-01T15:26:46.467Z,2.68
2022-12-01T15:31:55.957Z,2.59
2022-12-01T15:37:00.721Z,2.53
2022-12-01T15:42:04.546Z,2.44
2022-12-01T15:47:47.283Z,2.36
2022-12-01T15:52:50.285Z,2.35
2022-12-01T15:57:53.492Z,2.31
2022-12-01T16:02:59.507Z,2.27
2022-12-01T16:08:16.935Z,2.25
2022-12-01T16:13:57.377Z,2.18
2022-12-01T16:19:22.300Z,2.11
2022-12-01T16:24:42.635Z,2.09
2022-12-01T16:29:53.162Z,2.02
2022-12-01T16:34:56.625Z,1.95
2022-12-01T16:39:59.442Z,1.92
2022-12-01T16:45:02.207Z,1.85
2022-12-01T16:50:05.712Z,1.81
2022-12-01T16:55:27.375Z,1.75
2022-12-01T17:00:30.872Z,1.64
2022-12-01T17:05:34.348Z,1.58
2022-12-01T17:10:41.207Z,1.55
2022-12-01T17:15:46.364Z,1.52
2022-12-01T17:21:08.349Z,1.56
2022-12-01T17:26:14.879Z,1.66
2022-12-01T17:31:17.853Z,1.71
2022-12-01T17:36:21.029Z,1.74
2022-12-01T17:41:25.669Z,1.72
2022-12-01T17:46:29.621Z,1.71
2022-12-01T17:51:32.502Z,1.74
2022-12-01T17:56:35.504Z,1.76
2022-12-01T18:01:38.671Z,1.75
2022-12-01T18:06:42.134Z,1.68
2022-12-01T18:11:44.876Z,1.65
2022-12-01T18:16:47.840Z,1.66
2022-12-01T18:21:50.893Z,1.67
2022-12-01T18:26:54.899Z,1.67
2022-12-01T18:31:59.687Z,1.64
2022-12-01T18:37:03.233Z,1.65
2022-12-01T18:42:05.944Z,1.69
2022-12-01T18:47:08.916Z,1.70
2022-12-01T18:52:11.862Z,1.64
2022-12-01T18:57:14.859Z,1.60
2022-12-01T19:02:18.324Z,1.57
2022-12-01T19:07:28.057Z,1.53
2022-12-01T19:12:36.384Z,1.41
2022-12-01T19:17:42.272Z,1.29
2022-12-01T19:22:45.150Z,1.19
2022-12-01T19:27:48.259Z,1.14
2022-12-01T19:32:51.062Z,1.06
2022-12-01T19:37:53.832Z,1.02
2022-12-01T19:42:56.869Z,0.99
2022-12-01T19:47:59.646Z,0.94
2022-12-01T19:53:03.168Z,0.94
2022-12-01T19:58:06.021Z,0.95
2022-12-01T20:03:08.898Z,0.93
2022-12-01T20:08:13.986Z,0.88
2022-12-01T20:13:16.701Z,0.83
2022-12-01T20:18:19.629Z,0.79
2022-12-01T20:23:22.352Z,0.72
2022-12-01T20:28:25.110Z,0.67
2022-12-01T20:33:28.809Z,0.67
2022-12-01T20:38:31.786Z,0.71
2022-12-01T20:43:35.373Z,0.73
2022-12-01T20:48:38.618Z,0.69
2022-12-01T20:53:54.667Z,0.65
2022-12-01T20:59:05.629Z,0.65
2022-12-01T21:04:08.731Z,0.70
2022-12-01T21:09:13.668Z,0.70
2022-12-01T21:14:27.975Z,0.66
2022-12-01T21:19:46.526Z,0.60
2022-12-01T21:24:51.989Z,0.57
2022-12-01T21:29:55.811Z,0.51
2022-12-01T21:35:13.669Z,0.42
2022-12-01T21:40:24.136Z,0.36
2022-12-01T21:45:32.020Z,0.35
2022-12-01T21:50:34.770Z,0.33
2022-12-01T21:55:39.068Z,0.29
2022-12-01T22:00:42.633Z,0.23
2022-12-01T22:06:01.436Z,0.20
2022-12-01T22:11:18.803Z,0.19
2022-12-01T22:16:28.716Z,0.17
2022-12-01T22:21:32.958Z,0.12
2022-12-01T22:26:44.580Z,0.08
2022-12-01T22:31:48.183Z,0.06
2022-12-01T22:36:51.605Z,0.03
2022-12-01T22:41:59.622Z,-0.05
2022-12-01T22:47:03.233Z,-0.09
2022-12-01T22:52:28.674Z,-0.13
2022-12-01T22:57:33.391Z,-0.17
2022-12-01T23:02:36.306Z,-0.17
2022-12-01T23:07:42.765Z,-0.18
2022-12-01T23:12:48.482Z,-0.27
2022-12-01T23:17:52.040Z,-0.38
2022-12-01T23:22:57.253Z,-0.42
2022-12-01T23:28:04.735Z,-0.42
2022-12-01T23:33:16.883Z,-0.48
2022-12-01T23:38:24.021Z,-0.53
2022-12-01T23:43:33.475Z,-0.54
2022-12-01T23:48:41.385Z,-0.57
2022-12-01T23:53:44.478Z,-0.59
2022-12-01T23:58:47.836Z,-0.59
